sensor_id;sensor_type;location;lat;lon;timestamp;temperature;humidity
61392;DHT22;47261;52.892;5.738;2023-05-10T00:31:14;12.30;99.90
61392;DHT22;47261;52.892;5.738;2023-05-10T00:33:40;12.20;99.90
61392;DHT22;47261;52.892;5.738;2023-05-10T00:36:06;12.30;99.90
61392;DHT22;47261;52.892;5.738;2023-05-10T00:38:33;12.30;99.90
61392;DHT22;47261;52.892;5.738;2023-05-10T00:40:58;12.50;99.90
61392;DHT22;47261;52.892;5.738;2023-05-10T00:43:24;12.60;99.90
61392;DHT22;47261;52.892;5.738;2023-05-10T00:45:50;12.70;99.90
61392;DHT22;47261;52.892;5.738;2023-05-10T00:48:15;12.70;99.90
61392;DHT22;47261;52.892;5.738;2023-05-10T00:50:41;12.80;99.90
61392;DHT22;47261;52.892;5.738;2023-05-10T00:53:08;12.80;99.90
61392;DHT22;47261;52.892;5.738;2023-05-10T00:55:34;12.90;99.90
61392;DHT22;47261;52.892;5.738;2023-05-10T00:58:00;12.90;99.90
61392;DHT22;47261;52.892;5.738;2023-05-10T01:00:25;12.90;99.90
61392;DHT22;47261;52.892;5.738;2023-05-10T01:02:53;13.00;99.90
61392;DHT22;47261;52.892;5.738;2023-05-10T01:05:19;13.00;99.90
61392;DHT22;47261;52.892;5.738;2023-05-10T01:07:45;13.00;99.90
61392;DHT22;47261;52.892;5.738;2023-05-10T01:10:10;13.00;99.90
61392;DHT22;47261;52.892;5.738;2023-05-10T01:12:39;13.00;99.90
61392;DHT22;47261;52.892;5.738;2023-05-10T01:15:07;13.00;99.90
61392;DHT22;47261;52.892;5.738;2023-05-10T01:17:35;13.10;99.90
61392;DHT22;47261;52.892;5.738;2023-05-10T01:20:02;13.10;99.90
61392;DHT22;47261;52.892;5.738;2023-05-10T01:23:04;13.10;99.90
61392;DHT22;47261;52.892;5.738;2023-05-10T01:31:21;13.10;99.90
61392;DHT22;47261;52.892;5.738;2023-05-10T01:34:41;13.10;99.90
61392;DHT22;47261;52.892;5.738;2023-05-10T01:37:06;13.10;99.90
61392;DHT22;47261;52.892;5.738;2023-05-10T01:39:44;13.10;99.90
61392;DHT22;47261;52.892;5.738;2023-05-10T01:42:16;13.10;99.90
61392;DHT22;47261;52.892;5.738;2023-05-10T01:44:45;13.20;99.90
61392;DHT22;47261;52.892;5.738;2023-05-10T01:47:14;13.20;99.90
61392;DHT22;47261;52.892;5.738;2023-05-10T01:49:49;13.20;99.90
61392;DHT22;47261;52.892;5.738;2023-05-10T01:52:17;13.20;99.90
61392;DHT22;47261;52.892;5.738;2023-05-10T01:55:02;13.20;99.90
61392;DHT22;47261;52.892;5.738;2023-05-10T01:57:33;13.20;99.90
61392;DHT22;47261;52.892;5.738;2023-05-10T01:59:59;13.30;99.90
61392;DHT22;47261;52.892;5.738;2023-05-10T02:02:27;13.30;99.90
61392;DHT22;47261;52.892;5.738;2023-05-10T02:04:54;13.30;99.90
61392;DHT22;47261;52.892;5.738;2023-05-10T02:07:21;13.30;99.90
61392;DHT22;47261;52.892;5.738;2023-05-10T02:09:48;13.30;99.90
61392;DHT22;47261;52.892;5.738;2023-05-10T02:12:16;13.40;99.90
61392;DHT22;47261;52.892;5.738;2023-05-10T02:14:42;13.40;99.90
61392;DHT22;47261;52.892;5.738;2023-05-10T02:17:09;13.40;99.90
61392;DHT22;47261;52.892;5.738;2023-05-10T02:19:38;13.40;99.90
61392;DHT22;47261;52.892;5.738;2023-05-10T02:22:05;13.40;99.90
61392;DHT22;47261;52.892;5.738;2023-05-10T02:24:32;13.40;99.90
61392;DHT22;47261;52.892;5.738;2023-05-10T02:26:59;13.40;99.90
61392;DHT22;47261;52.892;5.738;2023-05-10T02:29:26;13.40;99.90
61392;DHT22;47261;52.892;5.738;2023-05-10T02:31:53;13.40;99.90
61392;DHT22;47261;52.892;5.738;2023-05-10T02:34:21;13.50;99.90
61392;DHT22;47261;52.892;5.738;2023-05-10T02:36:49;13.50;99.90
61392;DHT22;47261;52.892;5.738;2023-05-10T02:39:18;13.50;99.90
61392;DHT22;47261;52.892;5.738;2023-05-10T02:41:45;13.50;99.90
61392;DHT22;47261;52.892;5.738;2023-05-10T02:44:15;13.60;99.90
61392;DHT22;47261;52.892;5.738;2023-05-10T02:46:41;13.50;99.90
61392;DHT22;47261;52.892;5.738;2023-05-10T02:49:07;13.50;99.90
61392;DHT22;47261;52.892;5.738;2023-05-10T02:51:35;13.50;99.90
61392;DHT22;47261;52.892;5.738;2023-05-10T02:54:07;13.50;99.90
61392;DHT22;47261;52.892;5.738;2023-05-10T02:56:36;13.60;99.90
61392;DHT22;47261;52.892;5.738;2023-05-10T02:59:04;13.50;99.90
61392;DHT22;47261;52.892;5.738;2023-05-10T03:01:30;13.60;99.90
61392;DHT22;47261;52.892;5.738;2023-05-10T03:03:56;13.60;99.90
61392;DHT22;47261;52.892;5.738;2023-05-10T03:06:21;13.60;99.90
61392;DHT22;47261;52.892;5.738;2023-05-10T03:08:47;13.60;99.90
61392;DHT22;47261;52.892;5.738;2023-05-10T03:16:40;13.60;99.90
61392;DHT22;47261;52.892;5.738;2023-05-10T03:21:38;13.70;99.90
61392;DHT22;47261;52.892;5.738;2023-05-10T03:24:08;13.70;99.90
61392;DHT22;47261;52.892;5.738;2023-05-10T03:26:34;13.70;99.90
61392;DHT22;47261;52.892;5.738;2023-05-10T03:29:02;13.70;99.90
61392;DHT22;47261;52.892;5.738;2023-05-10T03:31:28;13.60;99.90
61392;DHT22;47261;52.892;5.738;2023-05-10T03:33:53;13.70;99.90
61392;DHT22;47261;52.892;5.738;2023-05-10T03:36:19;13.70;99.90
61392;DHT22;47261;52.892;5.738;2023-05-10T03:38:45;13.60;99.90
61392;DHT22;47261;52.892;5.738;2023-05-10T03:41:11;13.60;99.90
61392;DHT22;47261;52.892;5.738;2023-05-10T03:43:36;13.60;99.90
61392;DHT22;47261;52.892;5.738;2023-05-10T03:46:05;13.60;99.90
61392;DHT22;47261;52.892;5.738;2023-05-10T03:48:32;13.60;99.90
61392;DHT22;47261;52.892;5.738;2023-05-10T03:50:57;13.60;99.90
61392;DHT22;47261;52.892;5.738;2023-05-10T03:53:23;13.50;99.90
61392;DHT22;47261;52.892;5.738;2023-05-10T03:55:48;13.50;99.90
61392;DHT22;47261;52.892;5.738;2023-05-10T03:58:14;13.50;99.90
61392;DHT22;47261;52.892;5.738;2023-05-10T04:00:40;13.50;99.90
61392;DHT22;47261;52.892;5.738;2023-05-10T04:03:11;13.50;99.90
61392;DHT22;47261;52.892;5.738;2023-05-10T04:05:37;13.50;99.90
61392;DHT22;47261;52.892;5.738;2023-05-10T04:08:03;13.40;99.90
61392;DHT22;47261;52.892;5.738;2023-05-10T04:10:29;13.40;99.90
61392;DHT22;47261;52.892;5.738;2023-05-10T04:12:55;13.40;99.90
61392;DHT22;47261;52.892;5.738;2023-05-10T04:15:20;13.40;99.90
61392;DHT22;47261;52.892;5.738;2023-05-10T04:17:46;13.40;99.90
61392;DHT22;47261;52.892;5.738;2023-05-10T04:20:12;13.40;99.90
61392;DHT22;47261;52.892;5.738;2023-05-10T04:22:38;13.40;99.90
61392;DHT22;47261;52.892;5.738;2023-05-10T04:25:04;13.40;99.90
61392;DHT22;47261;52.892;5.738;2023-05-10T04:27:30;13.40;99.90
61392;DHT22;47261;52.892;5.738;2023-05-10T04:29:56;13.40;99.90
61392;DHT22;47261;52.892;5.738;2023-05-10T04:32:22;13.40;99.90
61392;DHT22;47261;52.892;5.738;2023-05-10T04:34:47;13.40;99.90
61392;DHT22;47261;52.892;5.738;2023-05-10T04:37:13;13.40;99.90
61392;DHT22;47261;52.892;5.738;2023-05-10T04:39:39;13.40;99.90
61392;DHT22;47261;52.892;5.738;2023-05-10T04:42:04;13.40;99.90
61392;DHT22;47261;52.892;5.738;2023-05-10T04:44:31;13.40;99.90
61392;DHT22;47261;52.892;5.738;2023-05-10T04:46:57;13.40;99.90
61392;DHT22;47261;52.892;5.738;2023-05-10T04:49:23;13.40;99.90
61392;DHT22;47261;52.892;5.738;2023-05-10T04:51:48;13.40;99.90
61392;DHT22;47261;52.892;5.738;2023-05-10T04:54:14;13.50;99.90
61392;DHT22;47261;52.892;5.738;2023-05-10T04:56:40;13.50;99.90
61392;DHT22;47261;52.892;5.738;2023-05-10T04:59:06;13.50;99.90
61392;DHT22;47261;52.892;5.738;2023-05-10T05:01:32;13.50;99.90
61392;DHT22;47261;52.892;5.738;2023-05-10T05:03:58;13.50;99.90
61392;DHT22;47261;52.892;5.738;2023-05-10T05:06:24;13.50;99.90
61392;DHT22;47261;52.892;5.738;2023-05-10T05:08:50;13.50;99.90
61392;DHT22;47261;52.892;5.738;2023-05-10T05:11:16;13.50;99.90
61392;DHT22;47261;52.892;5.738;2023-05-10T05:13:42;13.50;99.90
61392;DHT22;47261;52.892;5.738;2023-05-10T05:16:08;13.50;99.90
61392;DHT22;47261;52.892;5.738;2023-05-10T05:18:34;13.50;99.90
61392;DHT22;47261;52.892;5.738;2023-05-10T05:21:00;13.50;99.90
61392;DHT22;47261;52.892;5.738;2023-05-10T05:23:26;13.60;99.90
61392;DHT22;47261;52.892;5.738;2023-05-10T05:25:52;13.50;99.90
61392;DHT22;47261;52.892;5.738;2023-05-10T05:28:22;13.50;99.90
61392;DHT22;47261;52.892;5.738;2023-05-10T05:30:48;13.50;99.90
61392;DHT22;47261;52.892;5.738;2023-05-10T05:33:14;13.50;99.90
61392;DHT22;47261;52.892;5.738;2023-05-10T05:35:41;13.50;99.90
61392;DHT22;47261;52.892;5.738;2023-05-10T05:38:08;13.50;99.90
61392;DHT22;47261;52.892;5.738;2023-05-10T05:40:33;13.50;99.90
61392;DHT22;47261;52.892;5.738;2023-05-10T05:42:59;13.50;99.90
61392;DHT22;47261;52.892;5.738;2023-05-10T05:45:25;13.50;99.90
61392;DHT22;47261;52.892;5.738;2023-05-10T05:47:50;13.60;99.90
61392;DHT22;47261;52.892;5.738;2023-05-10T05:50:16;13.60;99.90
61392;DHT22;47261;52.892;5.738;2023-05-10T05:52:42;13.70;99.90
61392;DHT22;47261;52.892;5.738;2023-05-10T05:55:07;13.70;99.90
61392;DHT22;47261;52.892;5.738;2023-05-10T05:57:33;13.80;99.90
61392;DHT22;47261;52.892;5.738;2023-05-10T05:59:59;13.80;99.90
61392;DHT22;47261;52.892;5.738;2023-05-10T06:02:24;13.80;99.90
61392;DHT22;47261;52.892;5.738;2023-05-10T06:04:50;13.80;99.90
61392;DHT22;47261;52.892;5.738;2023-05-10T06:07:16;13.80;99.90
61392;DHT22;47261;52.892;5.738;2023-05-10T06:09:41;13.80;99.90
61392;DHT22;47261;52.892;5.738;2023-05-10T06:12:07;13.80;99.90
61392;DHT22;47261;52.892;5.738;2023-05-10T06:14:33;13.80;99.90
61392;DHT22;47261;52.892;5.738;2023-05-10T06:16:58;13.80;99.90
61392;DHT22;47261;52.892;5.738;2023-05-10T06:19:25;13.80;99.90
61392;DHT22;47261;52.892;5.738;2023-05-10T06:21:51;13.80;99.90
61392;DHT22;47261;52.892;5.738;2023-05-10T06:24:17;13.80;99.90
61392;DHT22;47261;52.892;5.738;2023-05-10T06:26:43;13.80;99.90
61392;DHT22;47261;52.892;5.738;2023-05-10T06:29:08;13.80;99.90
61392;DHT22;47261;52.892;5.738;2023-05-10T06:31:34;13.80;99.90
61392;DHT22;47261;52.892;5.738;2023-05-10T06:34:00;13.70;99.90
61392;DHT22;47261;52.892;5.738;2023-05-10T06:36:25;13.70;99.90
61392;DHT22;47261;52.892;5.738;2023-05-10T06:38:52;13.70;99.90
61392;DHT22;47261;52.892;5.738;2023-05-10T06:41:18;13.70;99.90
61392;DHT22;47261;52.892;5.738;2023-05-10T06:43:43;13.70;99.90
61392;DHT22;47261;52.892;5.738;2023-05-10T06:46:09;13.70;99.90
61392;DHT22;47261;52.892;5.738;2023-05-10T06:48:35;13.70;99.90
61392;DHT22;47261;52.892;5.738;2023-05-10T06:51:00;13.70;99.90
61392;DHT22;47261;52.892;5.738;2023-05-10T06:53:26;13.60;99.90
61392;DHT22;47261;52.892;5.738;2023-05-10T06:55:52;13.70;99.90
61392;DHT22;47261;52.892;5.738;2023-05-10T06:58:18;13.70;99.90
61392;DHT22;47261;52.892;5.738;2023-05-10T07:00:44;13.60;99.90
61392;DHT22;47261;52.892;5.738;2023-05-10T07:03:10;13.60;99.90
61392;DHT22;47261;52.892;5.738;2023-05-10T07:05:36;13.60;99.90
61392;DHT22;47261;52.892;5.738;2023-05-10T07:08:02;13.60;99.90
61392;DHT22;47261;52.892;5.738;2023-05-10T07:10:27;13.60;99.90
61392;DHT22;47261;52.892;5.738;2023-05-10T07:12:53;13.60;99.90
61392;DHT22;47261;52.892;5.738;2023-05-10T07:15:19;13.70;99.90
61392;DHT22;47261;52.892;5.738;2023-05-10T07:17:45;13.70;99.90
61392;DHT22;47261;52.892;5.738;2023-05-10T07:20:11;13.70;99.90
61392;DHT22;47261;52.892;5.738;2023-05-10T07:22:37;13.70;99.90
61392;DHT22;47261;52.892;5.738;2023-05-10T07:25:03;13.80;99.90
61392;DHT22;47261;52.892;5.738;2023-05-10T07:27:28;13.80;99.90
61392;DHT22;47261;52.892;5.738;2023-05-10T07:29:54;13.90;99.90
61392;DHT22;47261;52.892;5.738;2023-05-10T07:32:20;13.90;99.90
61392;DHT22;47261;52.892;5.738;2023-05-10T07:34:46;13.90;99.90
61392;DHT22;47261;52.892;5.738;2023-05-10T07:37:12;14.00;99.90
61392;DHT22;47261;52.892;5.738;2023-05-10T07:39:38;14.10;99.90
61392;DHT22;47261;52.892;5.738;2023-05-10T07:42:03;14.10;99.90
61392;DHT22;47261;52.892;5.738;2023-05-10T07:44:29;14.20;99.90
61392;DHT22;47261;52.892;5.738;2023-05-10T07:46:54;14.30;99.90
61392;DHT22;47261;52.892;5.738;2023-05-10T07:49:21;14.30;99.90
61392;DHT22;47261;52.892;5.738;2023-05-10T07:51:46;14.40;99.90
61392;DHT22;47261;52.892;5.738;2023-05-10T07:54:13;14.50;99.90
61392;DHT22;47261;52.892;5.738;2023-05-10T07:56:39;14.60;99.90
61392;DHT22;47261;52.892;5.738;2023-05-10T07:59:10;14.70;99.90
61392;DHT22;47261;52.892;5.738;2023-05-10T08:01:35;14.80;99.90
61392;DHT22;47261;52.892;5.738;2023-05-10T08:04:01;14.90;99.90
61392;DHT22;47261;52.892;5.738;2023-05-10T08:06:27;15.00;99.90
61392;DHT22;47261;52.892;5.738;2023-05-10T08:08:55;15.10;99.90
61392;DHT22;47261;52.892;5.738;2023-05-10T08:11:21;15.10;99.90
61392;DHT22;47261;52.892;5.738;2023-05-10T08:13:48;15.00;99.90
61392;DHT22;47261;52.892;5.738;2023-05-10T08:16:14;15.00;99.90
61392;DHT22;47261;52.892;5.738;2023-05-10T08:18:40;15.00;99.90
61392;DHT22;47261;52.892;5.738;2023-05-10T08:21:06;15.00;99.90
61392;DHT22;47261;52.892;5.738;2023-05-10T08:23:31;15.00;99.90
61392;DHT22;47261;52.892;5.738;2023-05-10T08:25:57;14.90;99.90
61392;DHT22;47261;52.892;5.738;2023-05-10T08:28:23;14.90;99.90
61392;DHT22;47261;52.892;5.738;2023-05-10T08:30:50;14.90;99.90
61392;DHT22;47261;52.892;5.738;2023-05-10T08:33:17;14.90;99.90
61392;DHT22;47261;52.892;5.738;2023-05-10T08:35:42;15.00;99.90
61392;DHT22;47261;52.892;5.738;2023-05-10T08:38:08;15.10;99.90
61392;DHT22;47261;52.892;5.738;2023-05-10T08:40:34;15.20;99.90
61392;DHT22;47261;52.892;5.738;2023-05-10T08:43:06;15.30;99.90
61392;DHT22;47261;52.892;5.738;2023-05-10T08:45:36;15.40;99.90
61392;DHT22;47261;52.892;5.738;2023-05-10T08:48:05;15.60;99.90
61392;DHT22;47261;52.892;5.738;2023-05-10T08:50:31;15.70;99.90
61392;DHT22;47261;52.892;5.738;2023-05-10T08:53:00;15.80;99.90
61392;DHT22;47261;52.892;5.738;2023-05-10T08:55:26;15.80;99.90
61392;DHT22;47261;52.892;5.738;2023-05-10T08:57:53;15.90;99.90
61392;DHT22;47261;52.892;5.738;2023-05-10T09:00:19;16.00;99.90
61392;DHT22;47261;52.892;5.738;2023-05-10T09:02:45;16.10;99.90
61392;DHT22;47261;52.892;5.738;2023-05-10T09:05:13;16.20;99.90
61392;DHT22;47261;52.892;5.738;2023-05-10T09:07:41;16.40;99.90
61392;DHT22;47261;52.892;5.738;2023-05-10T09:10:08;16.50;99.90
61392;DHT22;47261;52.892;5.738;2023-05-10T09:12:35;16.50;99.90
61392;DHT22;47261;52.892;5.738;2023-05-10T09:15:02;16.50;99.90
61392;DHT22;47261;52.892;5.738;2023-05-10T09:17:30;16.50;99.90
61392;DHT22;47261;52.892;5.738;2023-05-10T09:19:59;16.60;99.90
61392;DHT22;47261;52.892;5.738;2023-05-10T09:22:25;16.60;99.90
61392;DHT22;47261;52.892;5.738;2023-05-10T09:25:14;16.60;99.90
61392;DHT22;47261;52.892;5.738;2023-05-10T09:27:43;16.60;99.90
61392;DHT22;47261;52.892;5.738;2023-05-10T09:30:27;16.60;99.90
61392;DHT22;47261;52.892;5.738;2023-05-10T09:32:54;16.50;99.90
61392;DHT22;47261;52.892;5.738;2023-05-10T09:35:22;16.60;99.90
61392;DHT22;47261;52.892;5.738;2023-05-10T09:37:54;16.60;99.90
61392;DHT22;47261;52.892;5.738;2023-05-10T09:40:22;16.60;99.90
61392;DHT22;47261;52.892;5.738;2023-05-10T09:45:18;16.50;99.90
61392;DHT22;47261;52.892;5.738;2023-05-10T09:47:45;16.50;99.90
61392;DHT22;47261;52.892;5.738;2023-05-10T09:50:11;16.40;99.90
61392;DHT22;47261;52.892;5.738;2023-05-10T09:55:12;16.50;99.90
61392;DHT22;47261;52.892;5.738;2023-05-10T09:57:39;16.50;99.90
61392;DHT22;47261;52.892;5.738;2023-05-10T10:00:05;16.60;99.90
61392;DHT22;47261;52.892;5.738;2023-05-10T10:02:31;16.80;99.90
61392;DHT22;47261;52.892;5.738;2023-05-10T10:04:57;16.90;99.90
61392;DHT22;47261;52.892;5.738;2023-05-10T10:07:24;17.10;99.90
61392;DHT22;47261;52.892;5.738;2023-05-10T10:09:51;17.20;99.90
61392;DHT22;47261;52.892;5.738;2023-05-10T10:12:17;17.30;99.90
61392;DHT22;47261;52.892;5.738;2023-05-10T10:14:43;17.20;99.90
61392;DHT22;47261;52.892;5.738;2023-05-10T10:17:09;17.10;99.90
61392;DHT22;47261;52.892;5.738;2023-05-10T10:19:35;17.00;99.90
61392;DHT22;47261;52.892;5.738;2023-05-10T10:22:01;16.90;99.90
61392;DHT22;47261;52.892;5.738;2023-05-10T10:24:28;16.80;99.90
61392;DHT22;47261;52.892;5.738;2023-05-10T10:26:59;16.70;99.90
61392;DHT22;47261;52.892;5.738;2023-05-10T10:29:56;16.70;99.90
61392;DHT22;47261;52.892;5.738;2023-05-10T10:35:21;16.80;99.90
61392;DHT22;47261;52.892;5.738;2023-05-10T10:37:47;16.80;99.90
61392;DHT22;47261;52.892;5.738;2023-05-10T10:40:32;16.90;99.90
61392;DHT22;47261;52.892;5.738;2023-05-10T10:42:58;17.00;99.90
61392;DHT22;47261;52.892;5.738;2023-05-10T10:45:24;17.00;99.90
61392;DHT22;47261;52.892;5.738;2023-05-10T10:48:20;17.10;99.90
61392;DHT22;47261;52.892;5.738;2023-05-10T10:50:46;17.20;99.90
61392;DHT22;47261;52.892;5.738;2023-05-10T10:53:12;17.30;99.90
61392;DHT22;47261;52.892;5.738;2023-05-10T10:55:48;17.40;99.90
61392;DHT22;47261;52.892;5.738;2023-05-10T10:58:31;17.50;99.90
61392;DHT22;47261;52.892;5.738;2023-05-10T11:01:16;17.60;99.90
61392;DHT22;47261;52.892;5.738;2023-05-10T11:06:35;17.90;99.90
61392;DHT22;47261;52.892;5.738;2023-05-10T11:09:08;18.00;99.70
61392;DHT22;47261;52.892;5.738;2023-05-10T11:11:35;18.10;99.50
61392;DHT22;47261;52.892;5.738;2023-05-10T11:14:06;18.30;99.20
61392;DHT22;47261;52.892;5.738;2023-05-10T11:16:42;18.40;98.70
61392;DHT22;47261;52.892;5.738;2023-05-10T11:19:15;18.50;98.50
61392;DHT22;47261;52.892;5.738;2023-05-10T11:24:37;18.50;97.90
61392;DHT22;47261;52.892;5.738;2023-05-10T11:27:02;18.50;98.00
61392;DHT22;47261;52.892;5.738;2023-05-10T11:29:28;18.50;97.70
61392;DHT22;47261;52.892;5.738;2023-05-10T11:31:57;18.40;97.70
61392;DHT22;47261;52.892;5.738;2023-05-10T11:34:30;18.30;97.30
61392;DHT22;47261;52.892;5.738;2023-05-10T11:36:58;18.30;97.10
61392;DHT22;47261;52.892;5.738;2023-05-10T11:39:29;18.10;97.00
61392;DHT22;47261;52.892;5.738;2023-05-10T11:41:56;18.10;97.20
61392;DHT22;47261;52.892;5.738;2023-05-10T11:44:21;18.00;97.30
61392;DHT22;47261;52.892;5.738;2023-05-10T11:46:47;17.90;97.40
61392;DHT22;47261;52.892;5.738;2023-05-10T11:49:14;17.80;97.50
61392;DHT22;47261;52.892;5.738;2023-05-10T11:51:39;17.80;97.70
61392;DHT22;47261;52.892;5.738;2023-05-10T11:54:08;17.80;97.80
61392;DHT22;47261;52.892;5.738;2023-05-10T11:56:34;17.80;97.90
61392;DHT22;47261;52.892;5.738;2023-05-10T11:59:00;17.90;98.10
61392;DHT22;47261;52.892;5.738;2023-05-10T12:01:28;17.90;98.10
61392;DHT22;47261;52.892;5.738;2023-05-10T12:03:56;18.00;98.10
61392;DHT22;47261;52.892;5.738;2023-05-10T12:06:30;18.00;98.10
61392;DHT22;47261;52.892;5.738;2023-05-10T12:08:56;18.10;98.00
61392;DHT22;47261;52.892;5.738;2023-05-10T12:11:25;18.20;98.00
61392;DHT22;47261;52.892;5.738;2023-05-10T12:13:53;18.30;98.00
61392;DHT22;47261;52.892;5.738;2023-05-10T12:16:23;18.50;97.90
61392;DHT22;47261;52.892;5.738;2023-05-10T12:18:56;18.60;97.60
61392;DHT22;47261;52.892;5.738;2023-05-10T12:21:23;18.70;97.40
61392;DHT22;47261;52.892;5.738;2023-05-10T12:23:51;18.80;97.30
61392;DHT22;47261;52.892;5.738;2023-05-10T12:26:17;18.90;97.10
61392;DHT22;47261;52.892;5.738;2023-05-10T12:28:42;19.00;97.00
61392;DHT22;47261;52.892;5.738;2023-05-10T12:31:08;19.10;96.90
61392;DHT22;47261;52.892;5.738;2023-05-10T12:33:38;19.20;96.70
61392;DHT22;47261;52.892;5.738;2023-05-10T12:36:05;19.40;96.70
61392;DHT22;47261;52.892;5.738;2023-05-10T12:41:01;19.60;96.30
61392;DHT22;47261;52.892;5.738;2023-05-10T12:43:27;19.60;96.00
61392;DHT22;47261;52.892;5.738;2023-05-10T12:45:53;19.70;95.70
61392;DHT22;47261;52.892;5.738;2023-05-10T12:48:19;19.80;95.60
61392;DHT22;47261;52.892;5.738;2023-05-10T12:50:45;19.80;95.40
61392;DHT22;47261;52.892;5.738;2023-05-10T12:53:11;19.80;95.30
61392;DHT22;47261;52.892;5.738;2023-05-10T12:55:38;19.80;95.20
61392;DHT22;47261;52.892;5.738;2023-05-10T12:58:04;19.80;95.10
61392;DHT22;47261;52.892;5.738;2023-05-10T13:00:30;19.80;94.90
61392;DHT22;47261;52.892;5.738;2023-05-10T13:02:55;19.70;94.90
61392;DHT22;47261;52.892;5.738;2023-05-10T13:05:21;19.70;94.90
61392;DHT22;47261;52.892;5.738;2023-05-10T13:07:46;19.70;94.50
61392;DHT22;47261;52.892;5.738;2023-05-10T13:10:12;19.70;94.30
61392;DHT22;47261;52.892;5.738;2023-05-10T13:12:38;19.70;94.40
61392;DHT22;47261;52.892;5.738;2023-05-10T13:15:03;19.70;94.40
61392;DHT22;47261;52.892;5.738;2023-05-10T13:17:29;19.70;94.50
61392;DHT22;47261;52.892;5.738;2023-05-10T13:19:55;19.70;94.40
61392;DHT22;47261;52.892;5.738;2023-05-10T13:22:20;19.60;94.20
61392;DHT22;47261;52.892;5.738;2023-05-10T13:24:46;19.60;94.20
61392;DHT22;47261;52.892;5.738;2023-05-10T13:27:12;19.60;94.30
61392;DHT22;47261;52.892;5.738;2023-05-10T13:29:37;19.60;94.30
61392;DHT22;47261;52.892;5.738;2023-05-10T13:32:03;19.60;94.30
61392;DHT22;47261;52.892;5.738;2023-05-10T13:34:29;19.60;94.20
61392;DHT22;47261;52.892;5.738;2023-05-10T13:36:54;19.60;94.20
61392;DHT22;47261;52.892;5.738;2023-05-10T13:39:21;19.70;94.20
61392;DHT22;47261;52.892;5.738;2023-05-10T13:41:47;19.70;94.00
61392;DHT22;47261;52.892;5.738;2023-05-10T13:44:13;19.70;93.90
61392;DHT22;47261;52.892;5.738;2023-05-10T13:46:40;19.80;93.90
61392;DHT22;47261;52.892;5.738;2023-05-10T13:49:06;19.80;93.80
61392;DHT22;47261;52.892;5.738;2023-05-10T13:51:33;19.90;93.80
61392;DHT22;47261;52.892;5.738;2023-05-10T13:53:59;19.90;93.80
61392;DHT22;47261;52.892;5.738;2023-05-10T13:56:24;20.00;93.70
61392;DHT22;47261;52.892;5.738;2023-05-10T13:58:50;20.00;93.80
61392;DHT22;47261;52.892;5.738;2023-05-10T14:01:16;20.10;94.10
61392;DHT22;47261;52.892;5.738;2023-05-10T14:03:42;20.20;93.80
61392;DHT22;47261;52.892;5.738;2023-05-10T14:06:08;20.30;93.90
61392;DHT22;47261;52.892;5.738;2023-05-10T14:08:34;20.40;93.60
61392;DHT22;47261;52.892;5.738;2023-05-10T14:11:00;20.40;93.00
61392;DHT22;47261;52.892;5.738;2023-05-10T14:13:26;20.30;92.50
61392;DHT22;47261;52.892;5.738;2023-05-10T14:15:53;20.20;92.30
61392;DHT22;47261;52.892;5.738;2023-05-10T14:18:19;20.00;92.30
61392;DHT22;47261;52.892;5.738;2023-05-10T14:20:45;19.90;92.40
61392;DHT22;47261;52.892;5.738;2023-05-10T14:23:10;19.70;92.40
61392;DHT22;47261;52.892;5.738;2023-05-10T14:25:36;19.60;92.40
61392;DHT22;47261;52.892;5.738;2023-05-10T14:28:03;19.40;92.40
61392;DHT22;47261;52.892;5.738;2023-05-10T14:30:29;19.20;92.60
61392;DHT22;47261;52.892;5.738;2023-05-10T14:32:54;19.10;92.90
61392;DHT22;47261;52.892;5.738;2023-05-10T14:35:20;18.90;93.00
61392;DHT22;47261;52.892;5.738;2023-05-10T14:37:46;18.80;93.10
61392;DHT22;47261;52.892;5.738;2023-05-10T14:40:12;18.60;93.30
61392;DHT22;47261;52.892;5.738;2023-05-10T14:42:38;18.50;93.50
61392;DHT22;47261;52.892;5.738;2023-05-10T14:45:04;18.40;93.60
61392;DHT22;47261;52.892;5.738;2023-05-10T14:47:30;18.40;93.80
61392;DHT22;47261;52.892;5.738;2023-05-10T14:49:55;18.30;94.00
61392;DHT22;47261;52.892;5.738;2023-05-10T14:52:21;18.20;94.10
61392;DHT22;47261;52.892;5.738;2023-05-10T14:54:47;18.20;94.20
61392;DHT22;47261;52.892;5.738;2023-05-10T14:57:12;18.10;94.20
61392;DHT22;47261;52.892;5.738;2023-05-10T14:59:38;18.10;94.30
61392;DHT22;47261;52.892;5.738;2023-05-10T15:02:04;18.10;94.40
61392;DHT22;47261;52.892;5.738;2023-05-10T15:04:29;18.00;94.50
61392;DHT22;47261;52.892;5.738;2023-05-10T15:06:55;18.00;94.50
61392;DHT22;47261;52.892;5.738;2023-05-10T15:09:25;18.00;94.60
61392;DHT22;47261;52.892;5.738;2023-05-10T15:11:51;17.90;94.70
61392;DHT22;47261;52.892;5.738;2023-05-10T15:14:16;17.90;94.70
61392;DHT22;47261;52.892;5.738;2023-05-10T15:16:42;17.90;94.70
61392;DHT22;47261;52.892;5.738;2023-05-10T15:19:08;17.90;94.80
61392;DHT22;47261;52.892;5.738;2023-05-10T15:21:33;18.00;94.80
61392;DHT22;47261;52.892;5.738;2023-05-10T15:24:05;17.90;94.90
61392;DHT22;47261;52.892;5.738;2023-05-10T15:26:31;17.90;94.90
61392;DHT22;47261;52.892;5.738;2023-05-10T15:28:57;17.90;94.80
61392;DHT22;47261;52.892;5.738;2023-05-10T15:31:22;17.90;94.80
61392;DHT22;47261;52.892;5.738;2023-05-10T15:33:48;17.90;94.80
61392;DHT22;47261;52.892;5.738;2023-05-10T15:36:13;17.90;94.90
61392;DHT22;47261;52.892;5.738;2023-05-10T15:38:39;17.90;95.10
61392;DHT22;47261;52.892;5.738;2023-05-10T15:41:05;17.90;95.30
61392;DHT22;47261;52.892;5.738;2023-05-10T15:43:30;17.90;95.50
61392;DHT22;47261;52.892;5.738;2023-05-10T15:45:56;17.90;95.60
61392;DHT22;47261;52.892;5.738;2023-05-10T15:48:22;17.90;95.80
61392;DHT22;47261;52.892;5.738;2023-05-10T15:50:47;17.90;95.90
61392;DHT22;47261;52.892;5.738;2023-05-10T15:53:13;17.90;96.00
61392;DHT22;47261;52.892;5.738;2023-05-10T15:55:39;17.80;96.10
61392;DHT22;47261;52.892;5.738;2023-05-10T15:58:04;17.80;96.20
61392;DHT22;47261;52.892;5.738;2023-05-10T16:00:30;17.70;96.30
61392;DHT22;47261;52.892;5.738;2023-05-10T16:02:56;17.70;96.40
61392;DHT22;47261;52.892;5.738;2023-05-10T16:05:21;17.60;96.50
61392;DHT22;47261;52.892;5.738;2023-05-10T16:07:47;17.60;96.60
61392;DHT22;47261;52.892;5.738;2023-05-10T16:10:13;17.50;96.70
61392;DHT22;47261;52.892;5.738;2023-05-10T16:12:39;17.40;96.80
61392;DHT22;47261;52.892;5.738;2023-05-10T16:15:05;17.40;96.90
61392;DHT22;47261;52.892;5.738;2023-05-10T16:17:31;17.30;97.00
61392;DHT22;47261;52.892;5.738;2023-05-10T16:19:57;17.30;97.10
61392;DHT22;47261;52.892;5.738;2023-05-10T16:22:24;17.30;97.20
61392;DHT22;47261;52.892;5.738;2023-05-10T16:24:51;17.20;97.30
61392;DHT22;47261;52.892;5.738;2023-05-10T16:27:18;17.20;97.40
61392;DHT22;47261;52.892;5.738;2023-05-10T16:29:44;17.20;97.50